sensor_id;sensor_type;location;lat;lon;timestamp;temperature;humidity
52245;DHT22;55759;51.586;-1.758;2024-03-07T00:00:07;3.90;91.20
52245;DHT22;55759;51.586;-1.758;2024-03-07T00:05:08;4.00;91.30
52245;DHT22;55759;51.586;-1.758;2024-03-07T00:07:33;4.00;91.40
52245;DHT22;55759;51.586;-1.758;2024-03-07T00:10:00;4.00;91.40
52245;DHT22;55759;51.586;-1.758;2024-03-07T00:12:25;4.00;91.40
52245;DHT22;55759;51.586;-1.758;2024-03-07T00:14:52;4.00;91.40
52245;DHT22;55759;51.586;-1.758;2024-03-07T00:17:18;4.00;91.40
52245;DHT22;55759;51.586;-1.758;2024-03-07T00:19:44;3.90;91.30
52245;DHT22;55759;51.586;-1.758;2024-03-07T00:22:10;3.90;91.20
52245;DHT22;55759;51.586;-1.758;2024-03-07T00:24:36;3.80;91.30
52245;DHT22;55759;51.586;-1.758;2024-03-07T00:27:02;3.80;91.30
52245;DHT22;55759;51.586;-1.758;2024-03-07T00:29:28;3.80;91.30
52245;DHT22;55759;51.586;-1.758;2024-03-07T00:31:54;3.70;91.30
52245;DHT22;55759;51.586;-1.758;2024-03-07T00:34:20;3.70;91.30
52245;DHT22;55759;51.586;-1.758;2024-03-07T00:36:48;3.60;91.30
52245;DHT22;55759;51.586;-1.758;2024-03-07T00:39:13;3.60;91.40
52245;DHT22;55759;51.586;-1.758;2024-03-07T00:41:39;3.60;91.40
52245;DHT22;55759;51.586;-1.758;2024-03-07T00:44:06;3.60;91.40
52245;DHT22;55759;51.586;-1.758;2024-03-07T00:46:34;3.50;91.40
52245;DHT22;55759;51.586;-1.758;2024-03-07T00:49:00;3.50;91.50
52245;DHT22;55759;51.586;-1.758;2024-03-07T00:51:25;3.50;91.50
52245;DHT22;55759;51.586;-1.758;2024-03-07T00:53:51;3.50;91.60
52245;DHT22;55759;51.586;-1.758;2024-03-07T00:56:17;3.60;91.70
52245;DHT22;55759;51.586;-1.758;2024-03-07T00:58:42;3.60;91.70
52245;DHT22;55759;51.586;-1.758;2024-03-07T01:01:08;3.60;91.70
52245;DHT22;55759;51.586;-1.758;2024-03-07T01:03:33;3.60;91.70
52245;DHT22;55759;51.586;-1.758;2024-03-07T01:05:59;3.60;91.80
52245;DHT22;55759;51.586;-1.758;2024-03-07T01:08:25;3.60;91.70
52245;DHT22;55759;51.586;-1.758;2024-03-07T01:10:50;3.60;91.70
52245;DHT22;55759;51.586;-1.758;2024-03-07T01:13:16;3.50;91.70
52245;DHT22;55759;51.586;-1.758;2024-03-07T01:15:47;3.60;91.80
52245;DHT22;55759;51.586;-1.758;2024-03-07T01:18:14;3.60;91.80
52245;DHT22;55759;51.586;-1.758;2024-03-07T01:20:40;3.60;91.70
52245;DHT22;55759;51.586;-1.758;2024-03-07T01:23:05;3.50;91.70
52245;DHT22;55759;51.586;-1.758;2024-03-07T01:25:33;3.50;91.70
52245;DHT22;55759;51.586;-1.758;2024-03-07T01:27:59;3.40;91.60
52245;DHT22;55759;51.586;-1.758;2024-03-07T01:30:25;3.40;91.60
52245;DHT22;55759;51.586;-1.758;2024-03-07T01:32:53;3.40;91.60
52245;DHT22;55759;51.586;-1.758;2024-03-07T01:35:19;3.40;91.60
52245;DHT22;55759;51.586;-1.758;2024-03-07T01:37:44;3.30;91.60
52245;DHT22;55759;51.586;-1.758;2024-03-07T01:40:10;3.30;91.60
52245;DHT22;55759;51.586;-1.758;2024-03-07T01:42:36;3.20;91.60
52245;DHT22;55759;51.586;-1.758;2024-03-07T01:45:02;3.20;91.60
52245;DHT22;55759;51.586;-1.758;2024-03-07T01:47:28;3.10;91.50
52245;DHT22;55759;51.586;-1.758;2024-03-07T01:49:54;3.10;91.50
52245;DHT22;55759;51.586;-1.758;2024-03-07T01:52:19;3.10;91.60
52245;DHT22;55759;51.586;-1.758;2024-03-07T01:54:46;3.10;91.70
52245;DHT22;55759;51.586;-1.758;2024-03-07T01:57:12;3.20;91.80
52245;DHT22;55759;51.586;-1.758;2024-03-07T01:59:38;3.20;91.90
52245;DHT22;55759;51.586;-1.758;2024-03-07T02:02:05;3.30;91.90
52245;DHT22;55759;51.586;-1.758;2024-03-07T02:04:30;3.30;91.90
52245;DHT22;55759;51.586;-1.758;2024-03-07T02:06:56;3.40;92.00
52245;DHT22;55759;51.586;-1.758;2024-03-07T02:09:21;3.40;92.00
52245;DHT22;55759;51.586;-1.758;2024-03-07T02:11:47;3.50;92.10
52245;DHT22;55759;51.586;-1.758;2024-03-07T02:14:14;3.50;92.10
52245;DHT22;55759;51.586;-1.758;2024-03-07T02:16:40;3.60;92.10
52245;DHT22;55759;51.586;-1.758;2024-03-07T02:19:05;3.60;92.10
52245;DHT22;55759;51.586;-1.758;2024-03-07T02:21:31;3.60;92.10
52245;DHT22;55759;51.586;-1.758;2024-03-07T02:23:57;3.70;92.10
52245;DHT22;55759;51.586;-1.758;2024-03-07T02:26:23;3.70;92.10
52245;DHT22;55759;51.586;-1.758;2024-03-07T02:28:49;3.70;92.00
52245;DHT22;55759;51.586;-1.758;2024-03-07T02:31:14;3.80;92.00
52245;DHT22;55759;51.586;-1.758;2024-03-07T02:33:40;3.70;91.80
52245;DHT22;55759;51.586;-1.758;2024-03-07T02:36:07;3.70;91.80
52245;DHT22;55759;51.586;-1.758;2024-03-07T02:38:32;3.60;91.70
52245;DHT22;55759;51.586;-1.758;2024-03-07T02:40:58;3.60;91.70
52245;DHT22;55759;51.586;-1.758;2024-03-07T02:43:24;3.60;91.60
52245;DHT22;55759;51.586;-1.758;2024-03-07T02:45:49;3.60;91.60
52245;DHT22;55759;51.586;-1.758;2024-03-07T02:48:15;3.60;91.50
52245;DHT22;55759;51.586;-1.758;2024-03-07T02:50:43;3.60;91.50
52245;DHT22;55759;51.586;-1.758;2024-03-07T02:53:09;3.60;91.50
52245;DHT22;55759;51.586;-1.758;2024-03-07T02:55:34;3.50;91.50
52245;DHT22;55759;51.586;-1.758;2024-03-07T02:58:00;3.50;91.40
52245;DHT22;55759;51.586;-1.758;2024-03-07T03:00:26;3.50;91.50
52245;DHT22;55759;51.586;-1.758;2024-03-07T03:02:57;3.40;91.40
52245;DHT22;55759;51.586;-1.758;2024-03-07T03:05:23;3.40;91.40
52245;DHT22;55759;51.586;-1.758;2024-03-07T03:07:49;3.40;91.50
52245;DHT22;55759;51.586;-1.758;2024-03-07T03:10:25;3.40;91.60
52245;DHT22;55759;51.586;-1.758;2024-03-07T03:12:54;3.40;91.50
52245;DHT22;55759;51.586;-1.758;2024-03-07T03:15:20;3.30;91.50
52245;DHT22;55759;51.586;-1.758;2024-03-07T03:17:48;3.30;91.40
52245;DHT22;55759;51.586;-1.758;2024-03-07T03:20:14;3.20;91.40
52245;DHT22;55759;51.586;-1.758;2024-03-07T03:23:01;3.20;91.50
52245;DHT22;55759;51.586;-1.758;2024-03-07T03:25:28;3.20;91.50
52245;DHT22;55759;51.586;-1.758;2024-03-07T03:27:54;3.20;91.50
52245;DHT22;55759;51.586;-1.758;2024-03-07T03:30:20;3.10;91.50
52245;DHT22;55759;51.586;-1.758;2024-03-07T03:32:47;3.10;91.50
52245;DHT22;55759;51.586;-1.758;2024-03-07T03:35:13;3.10;91.60
52245;DHT22;55759;51.586;-1.758;2024-03-07T03:37:39;3.10;91.60
52245;DHT22;55759;51.586;-1.758;2024-03-07T03:40:05;3.10;91.60
52245;DHT22;55759;51.586;-1.758;2024-03-07T03:42:31;3.20;91.60
52245;DHT22;55759;51.586;-1.758;2024-03-07T03:44:56;3.20;91.70
52245;DHT22;55759;51.586;-1.758;2024-03-07T03:47:22;3.20;91.90
52245;DHT22;55759;51.586;-1.758;2024-03-07T03:49:48;3.30;91.90
52245;DHT22;55759;51.586;-1.758;2024-03-07T03:52:13;3.30;91.90
52245;DHT22;55759;51.586;-1.758;2024-03-07T03:54:39;3.30;92.00
52245;DHT22;55759;51.586;-1.758;2024-03-07T03:57:04;3.40;92.00
52245;DHT22;55759;51.586;-1.758;2024-03-07T03:59:30;3.50;92.00
52245;DHT22;55759;51.586;-1.758;2024-03-07T04:01:56;3.60;92.00
52245;DHT22;55759;51.586;-1.758;2024-03-07T04:04:22;3.60;92.00
52245;DHT22;55759;51.586;-1.758;2024-03-07T04:06:51;3.70;92.00
52245;DHT22;55759;51.586;-1.758;2024-03-07T04:09:16;3.80;92.00
52245;DHT22;55759;51.586;-1.758;2024-03-07T04:11:44;3.80;92.00
52245;DHT22;55759;51.586;-1.758;2024-03-07T04:14:10;3.90;91.90
52245;DHT22;55759;51.586;-1.758;2024-03-07T04:16:35;3.90;91.80
52245;DHT22;55759;51.586;-1.758;2024-03-07T04:19:01;4.00;91.80
52245;DHT22;55759;51.586;-1.758;2024-03-07T04:21:26;4.00;91.70
52245;DHT22;55759;51.586;-1.758;2024-03-07T04:23:52;4.00;91.70
52245;DHT22;55759;51.586;-1.758;2024-03-07T04:26:17;4.00;91.70
52245;DHT22;55759;51.586;-1.758;2024-03-07T04:28:43;4.00;91.70
52245;DHT22;55759;51.586;-1.758;2024-03-07T04:31:09;4.10;91.70
52245;DHT22;55759;51.586;-1.758;2024-03-07T04:33:35;4.10;91.70
52245;DHT22;55759;51.586;-1.758;2024-03-07T04:36:00;4.10;91.70
52245;DHT22;55759;51.586;-1.758;2024-03-07T04:38:27;4.10;91.70
52245;DHT22;55759;51.586;-1.758;2024-03-07T04:40:53;4.10;91.70
52245;DHT22;55759;51.586;-1.758;2024-03-07T04:43:19;4.20;91.60
52245;DHT22;55759;51.586;-1.758;2024-03-07T04:45:44;4.20;91.60
52245;DHT22;55759;51.586;-1.758;2024-03-07T04:48:10;4.30;91.50
52245;DHT22;55759;51.586;-1.758;2024-03-07T04:50:36;4.30;91.40
52245;DHT22;55759;51.586;-1.758;2024-03-07T04:53:02;4.40;91.40
52245;DHT22;55759;51.586;-1.758;2024-03-07T04:55:27;4.40;91.40
52245;DHT22;55759;51.586;-1.758;2024-03-07T04:57:53;4.40;91.40
52245;DHT22;55759;51.586;-1.758;2024-03-07T05:00:18;4.50;91.30
52245;DHT22;55759;51.586;-1.758;2024-03-07T05:02:47;4.60;91.30
52245;DHT22;55759;51.586;-1.758;2024-03-07T05:05:14;4.60;91.10
52245;DHT22;55759;51.586;-1.758;2024-03-07T05:07:40;4.70;91.00
52245;DHT22;55759;51.586;-1.758;2024-03-07T05:10:06;4.70;91.00
52245;DHT22;55759;51.586;-1.758;2024-03-07T05:12:32;4.70;91.10
52245;DHT22;55759;51.586;-1.758;2024-03-07T05:14:58;4.70;91.00
52245;DHT22;55759;51.586;-1.758;2024-03-07T05:17:23;4.80;90.90
52245;DHT22;55759;51.586;-1.758;2024-03-07T05:19:50;4.80;90.90
52245;DHT22;55759;51.586;-1.758;2024-03-07T05:22:15;4.90;90.90
52245;DHT22;55759;51.586;-1.758;2024-03-07T05:24:42;4.90;90.80
52245;DHT22;55759;51.586;-1.758;2024-03-07T05:27:08;4.90;90.70
52245;DHT22;55759;51.586;-1.758;2024-03-07T05:29:36;4.90;90.70
52245;DHT22;55759;51.586;-1.758;2024-03-07T05:34:48;5.00;90.60
52245;DHT22;55759;51.586;-1.758;2024-03-07T05:37:13;5.00;90.70
52245;DHT22;55759;51.586;-1.758;2024-03-07T05:39:39;5.10;90.60
52245;DHT22;55759;51.586;-1.758;2024-03-07T05:42:04;5.10;90.60
52245;DHT22;55759;51.586;-1.758;2024-03-07T05:44:32;5.10;90.60
52245;DHT22;55759;51.586;-1.758;2024-03-07T05:46:57;5.10;90.50
52245;DHT22;55759;51.586;-1.758;2024-03-07T05:49:23;5.20;90.50
52245;DHT22;55759;51.586;-1.758;2024-03-07T05:51:49;5.20;90.50
52245;DHT22;55759;51.586;-1.758;2024-03-07T05:54:14;5.20;90.50
52245;DHT22;55759;51.586;-1.758;2024-03-07T05:56:40;5.20;90.40
52245;DHT22;55759;51.586;-1.758;2024-03-07T05:59:06;5.30;90.20
52245;DHT22;55759;51.586;-1.758;2024-03-07T06:01:35;5.20;90.10
52245;DHT22;55759;51.586;-1.758;2024-03-07T06:04:01;5.20;90.00
52245;DHT22;55759;51.586;-1.758;2024-03-07T06:06:27;5.20;90.00
52245;DHT22;55759;51.586;-1.758;2024-03-07T06:08:53;5.20;90.10
52245;DHT22;55759;51.586;-1.758;2024-03-07T06:11:19;5.20;89.90
52245;DHT22;55759;51.586;-1.758;2024-03-07T06:13:47;5.30;89.90
52245;DHT22;55759;51.586;-1.758;2024-03-07T06:16:13;5.30;89.60
52245;DHT22;55759;51.586;-1.758;2024-03-07T06:18:40;5.30;89.60
52245;DHT22;55759;51.586;-1.758;2024-03-07T06:21:05;5.30;89.50
52245;DHT22;55759;51.586;-1.758;2024-03-07T06:23:31;5.30;89.60
52245;DHT22;55759;51.586;-1.758;2024-03-07T06:25:58;5.30;89.50
52245;DHT22;55759;51.586;-1.758;2024-03-07T06:28:24;5.40;89.50
52245;DHT22;55759;51.586;-1.758;2024-03-07T06:30:50;5.40;89.50
52245;DHT22;55759;51.586;-1.758;2024-03-07T06:33:16;5.40;89.40
52245;DHT22;55759;51.586;-1.758;2024-03-07T06:35:45;5.40;89.40
52245;DHT22;55759;51.586;-1.758;2024-03-07T06:38:11;5.50;89.30
52245;DHT22;55759;51.586;-1.758;2024-03-07T06:40:37;5.50;89.30
52245;DHT22;55759;51.586;-1.758;2024-03-07T06:43:03;5.50;89.30
52245;DHT22;55759;51.586;-1.758;2024-03-07T06:45:29;5.50;89.30
52245;DHT22;55759;51.586;-1.758;2024-03-07T06:47:55;5.50;89.30
52245;DHT22;55759;51.586;-1.758;2024-03-07T06:50:21;5.50;89.20
52245;DHT22;55759;51.586;-1.758;2024-03-07T06:52:47;5.50;89.20
52245;DHT22;55759;51.586;-1.758;2024-03-07T06:55:16;5.50;89.40
52245;DHT22;55759;51.586;-1.758;2024-03-07T06:57:45;5.50;89.40
52245;DHT22;55759;51.586;-1.758;2024-03-07T07:00:14;5.60;89.30
52245;DHT22;55759;51.586;-1.758;2024-03-07T07:02:44;5.60;89.30
52245;DHT22;55759;51.586;-1.758;2024-03-07T07:05:10;5.60;89.20
52245;DHT22;55759;51.586;-1.758;2024-03-07T07:07:41;5.60;89.00
52245;DHT22;55759;51.586;-1.758;2024-03-07T07:10:09;5.60;88.90
52245;DHT22;55759;51.586;-1.758;2024-03-07T07:12:47;5.60;88.80
52245;DHT22;55759;51.586;-1.758;2024-03-07T07:15:14;5.50;88.80
52245;DHT22;55759;51.586;-1.758;2024-03-07T07:17:41;5.40;88.90
52245;DHT22;55759;51.586;-1.758;2024-03-07T07:20:07;5.40;89.00
52245;DHT22;55759;51.586;-1.758;2024-03-07T07:22:36;5.30;89.00
52245;DHT22;55759;51.586;-1.758;2024-03-07T07:25:02;5.20;89.10
52245;DHT22;55759;51.586;-1.758;2024-03-07T07:27:31;5.20;89.30
52245;DHT22;55759;51.586;-1.758;2024-03-07T07:29:57;5.10;89.50
52245;DHT22;55759;51.586;-1.758;2024-03-07T07:32:23;5.10;89.60
52245;DHT22;55759;51.586;-1.758;2024-03-07T07:34:48;5.10;89.70
52245;DHT22;55759;51.586;-1.758;2024-03-07T07:37:14;5.10;89.90
52245;DHT22;55759;51.586;-1.758;2024-03-07T07:39:42;5.10;90.20
52245;DHT22;55759;51.586;-1.758;2024-03-07T07:42:08;5.20;90.30
52245;DHT22;55759;51.586;-1.758;2024-03-07T07:44:35;5.30;90.10
52245;DHT22;55759;51.586;-1.758;2024-03-07T07:47:00;5.40;90.00
52245;DHT22;55759;51.586;-1.758;2024-03-07T07:49:26;5.50;89.90
52245;DHT22;55759;51.586;-1.758;2024-03-07T07:51:52;5.50;89.90
52245;DHT22;55759;51.586;-1.758;2024-03-07T07:54:19;5.60;89.70
52245;DHT22;55759;51.586;-1.758;2024-03-07T07:56:45;5.60;89.30
52245;DHT22;55759;51.586;-1.758;2024-03-07T07:59:13;5.60;89.00
52245;DHT22;55759;51.586;-1.758;2024-03-07T08:01:38;5.70;89.20
52245;DHT22;55759;51.586;-1.758;2024-03-07T08:04:05;5.70;89.00
52245;DHT22;55759;51.586;-1.758;2024-03-07T08:06:30;5.80;88.70
52245;DHT22;55759;51.586;-1.758;2024-03-07T08:08:56;5.90;88.80
52245;DHT22;55759;51.586;-1.758;2024-03-07T08:11:21;6.00;88.20
52245;DHT22;55759;51.586;-1.758;2024-03-07T08:13:47;6.10;88.20
52245;DHT22;55759;51.586;-1.758;2024-03-07T08:16:16;6.20;88.10
52245;DHT22;55759;51.586;-1.758;2024-03-07T08:18:41;6.20;87.50
52245;DHT22;55759;51.586;-1.758;2024-03-07T08:21:07;6.30;87.60
52245;DHT22;55759;51.586;-1.758;2024-03-07T08:23:38;6.40;87.50
52245;DHT22;55759;51.586;-1.758;2024-03-07T08:26:04;6.50;87.30
52245;DHT22;55759;51.586;-1.758;2024-03-07T08:28:31;6.50;87.20
52245;DHT22;55759;51.586;-1.758;2024-03-07T08:30:56;6.60;87.00
52245;DHT22;55759;51.586;-1.758;2024-03-07T08:33:22;6.70;86.60
52245;DHT22;55759;51.586;-1.758;2024-03-07T08:35:47;6.80;86.70
52245;DHT22;55759;51.586;-1.758;2024-03-07T08:38:15;6.90;86.30
52245;DHT22;55759;51.586;-1.758;2024-03-07T08:40:41;6.90;85.90
52245;DHT22;55759;51.586;-1.758;2024-03-07T08:43:07;6.90;85.90
52245;DHT22;55759;51.586;-1.758;2024-03-07T08:45:33;7.00;85.80
52245;DHT22;55759;51.586;-1.758;2024-03-07T08:47:58;7.10;85.60
52245;DHT22;55759;51.586;-1.758;2024-03-07T08:50:25;7.20;85.50
52245;DHT22;55759;51.586;-1.758;2024-03-07T08:52:51;7.40;85.00
52245;DHT22;55759;51.586;-1.758;2024-03-07T08:55:19;7.40;85.00
52245;DHT22;55759;51.586;-1.758;2024-03-07T08:57:45;7.50;84.70
52245;DHT22;55759;51.586;-1.758;2024-03-07T09:00:12;7.50;84.20
52245;DHT22;55759;51.586;-1.758;2024-03-07T09:02:47;7.40;84.30
52245;DHT22;55759;51.586;-1.758;2024-03-07T09:05:13;7.50;84.40
52245;DHT22;55759;51.586;-1.758;2024-03-07T09:07:41;7.50;84.30
52245;DHT22;55759;51.586;-1.758;2024-03-07T09:10:07;7.50;84.30
52245;DHT22;55759;51.586;-1.758;2024-03-07T09:12:32;7.60;84.30
52245;DHT22;55759;51.586;-1.758;2024-03-07T09:14:58;7.70;83.70
52245;DHT22;55759;51.586;-1.758;2024-03-07T09:17:23;7.90;83.60
52245;DHT22;55759;51.586;-1.758;2024-03-07T09:19:49;8.00;82.90
52245;DHT22;55759;51.586;-1.758;2024-03-07T09:22:15;8.10;82.70
52245;DHT22;55759;51.586;-1.758;2024-03-07T09:24:40;8.20;82.30
52245;DHT22;55759;51.586;-1.758;2024-03-07T09:27:06;8.30;82.00
52245;DHT22;55759;51.586;-1.758;2024-03-07T09:29:32;8.20;81.30
52245;DHT22;55759;51.586;-1.758;2024-03-07T09:31:57;8.30;81.20
52245;DHT22;55759;51.586;-1.758;2024-03-07T09:34:23;8.40;81.10
52245;DHT22;55759;51.586;-1.758;2024-03-07T09:36:52;8.50;80.60
52245;DHT22;55759;51.586;-1.758;2024-03-07T09:39:18;8.60;80.80
52245;DHT22;55759;51.586;-1.758;2024-03-07T09:41:44;8.80;80.10
52245;DHT22;55759;51.586;-1.758;2024-03-07T09:44:11;9.00;79.70
52245;DHT22;55759;51.586;-1.758;2024-03-07T09:46:38;9.00;79.50
52245;DHT22;55759;51.586;-1.758;2024-03-07T09:49:04;9.10;78.30
52245;DHT22;55759;51.586;-1.758;2024-03-07T09:51:31;9.00;77.90
52245;DHT22;55759;51.586;-1.758;2024-03-07T09:53:57;9.00;78.20
52245;DHT22;55759;51.586;-1.758;2024-03-07T09:56:25;9.10;78.10
52245;DHT22;55759;51.586;-1.758;2024-03-07T09:58:53;9.20;77.40
52245;DHT22;55759;51.586;-1.758;2024-03-07T10:01:25;9.20;77.30
52245;DHT22;55759;51.586;-1.758;2024-03-07T10:03:52;9.20;76.70
52245;DHT22;55759;51.586;-1.758;2024-03-07T10:06:25;9.20;76.40
52245;DHT22;55759;51.586;-1.758;2024-03-07T10:08:57;9.30;75.90
52245;DHT22;55759;51.586;-1.758;2024-03-07T10:11:29;9.20;75.80
52245;DHT22;55759;51.586;-1.758;2024-03-07T10:13:58;9.30;75.70
52245;DHT22;55759;51.586;-1.758;2024-03-07T10:16:23;9.20;75.60
52245;DHT22;55759;51.586;-1.758;2024-03-07T10:18:49;9.30;75.10
52245;DHT22;55759;51.586;-1.758;2024-03-07T10:21:21;9.40;74.60
52245;DHT22;55759;51.586;-1.758;2024-03-07T10:24:04;9.40;74.40
52245;DHT22;55759;51.586;-1.758;2024-03-07T10:26:31;9.40;74.30
52245;DHT22;55759;51.586;-1.758;2024-03-07T10:29:23;9.40;74.10
52245;DHT22;55759;51.586;-1.758;2024-03-07T10:31:49;9.40;74.00
52245;DHT22;55759;51.586;-1.758;2024-03-07T10:34:14;9.60;74.00
52245;DHT22;55759;51.586;-1.758;2024-03-07T10:36:42;9.70;73.80
52245;DHT22;55759;51.586;-1.758;2024-03-07T10:39:08;9.80;73.10
52245;DHT22;55759;51.586;-1.758;2024-03-07T10:41:46;9.90;72.90
52245;DHT22;55759;51.586;-1.758;2024-03-07T10:44:24;10.00;72.60
52245;DHT22;55759;51.586;-1.758;2024-03-07T10:46:54;10.20;72.10
52245;DHT22;55759;51.586;-1.758;2024-03-07T10:49:20;10.30;71.50
52245;DHT22;55759;51.586;-1.758;2024-03-07T10:54:39;10.40;70.40
52245;DHT22;55759;51.586;-1.758;2024-03-07T10:57:31;10.40;70.10
52245;DHT22;55759;51.586;-1.758;2024-03-07T11:00:21;10.40;70.30
52245;DHT22;55759;51.586;-1.758;2024-03-07T11:02:55;10.50;70.60
52245;DHT22;55759;51.586;-1.758;2024-03-07T11:05:24;10.60;70.50
52245;DHT22;55759;51.586;-1.758;2024-03-07T11:07:51;10.50;71.00
52245;DHT22;55759;51.586;-1.758;2024-03-07T11:10:18;10.70;71.10
52245;DHT22;55759;51.586;-1.758;2024-03-07T11:12:53;10.90;70.10
52245;DHT22;55759;51.586;-1.758;2024-03-07T11:15:19;11.00;70.70
52245;DHT22;55759;51.586;-1.758;2024-03-07T11:17:49;11.10;69.00
52245;DHT22;55759;51.586;-1.758;2024-03-07T11:20:21;11.00;68.90
52245;DHT22;55759;51.586;-1.758;2024-03-07T11:22:47;11.10;68.70
52245;DHT22;55759;51.586;-1.758;2024-03-07T11:25:17;11.10;68.70
52245;DHT22;55759;51.586;-1.758;2024-03-07T11:27:50;11.00;69.10
52245;DHT22;55759;51.586;-1.758;2024-03-07T11:30:16;10.90;70.20
52245;DHT22;55759;51.586;-1.758;2024-03-07T11:32:43;10.80;70.80
52245;DHT22;55759;51.586;-1.758;2024-03-07T11:35:12;10.80;71.60
52245;DHT22;55759;51.586;-1.758;2024-03-07T11:37:41;10.90;70.90
52245;DHT22;55759;51.586;-1.758;2024-03-07T11:42:48;11.00;70.80
52245;DHT22;55759;51.586;-1.758;2024-03-07T11:45:14;10.90;71.20
52245;DHT22;55759;51.586;-1.758;2024-03-07T11:48:00;10.90;71.00
52245;DHT22;55759;51.586;-1.758;2024-03-07T11:50:38;10.80;71.10
52245;DHT22;55759;51.586;-1.758;2024-03-07T11:53:05;10.70;71.90
52245;DHT22;55759;51.586;-1.758;2024-03-07T11:55:34;10.70;71.30
52245;DHT22;55759;51.586;-1.758;2024-03-07T11:58:10;10.80;71.70
52245;DHT22;55759;51.586;-1.758;2024-03-07T12:00:40;11.00;71.50
52245;DHT22;55759;51.586;-1.758;2024-03-07T12:03:10;11.10;70.70
52245;DHT22;55759;51.586;-1.758;2024-03-07T12:05:39;11.10;70.30
52245;DHT22;55759;51.586;-1.758;2024-03-07T12:08:05;11.20;70.10
52245;DHT22;55759;51.586;-1.758;2024-03-07T12:10:31;11.30;70.10
52245;DHT22;55759;51.586;-1.758;2024-03-07T12:12:56;11.20;69.80
52245;DHT22;55759;51.586;-1.758;2024-03-07T12:15:23;11.20;69.80
52245;DHT22;55759;51.586;-1.758;2024-03-07T12:17:49;11.20;69.90
52245;DHT22;55759;51.586;-1.758;2024-03-07T12:20:18;11.20;70.10
52245;DHT22;55759;51.586;-1.758;2024-03-07T12:22:56;11.40;69.60
52245;DHT22;55759;51.586;-1.758;2024-03-07T12:25:22;11.60;69.10
52245;DHT22;55759;51.586;-1.758;2024-03-07T12:28:05;11.80;68.60
52245;DHT22;55759;51.586;-1.758;2024-03-07T12:30:34;11.80;68.20
52245;DHT22;55759;51.586;-1.758;2024-03-07T12:33:00;11.70;67.70
52245;DHT22;55759;51.586;-1.758;2024-03-07T12:35:27;11.50;68.30
52245;DHT22;55759;51.586;-1.758;2024-03-07T12:37:53;11.30;69.50
52245;DHT22;55759;51.586;-1.758;2024-03-07T12:40:19;11.40;69.60
52245;DHT22;55759;51.586;-1.758;2024-03-07T12:42:54;11.40;68.80
52245;DHT22;55759;51.586;-1.758;2024-03-07T12:45:20;11.20;69.20
52245;DHT22;55759;51.586;-1.758;2024-03-07T12:47:46;11.10;69.90
52245;DHT22;55759;51.586;-1.758;2024-03-07T12:50:12;11.10;70.20
52245;DHT22;55759;51.586;-1.758;2024-03-07T12:52:38;11.00;69.80
52245;DHT22;55759;51.586;-1.758;2024-03-07T12:55:05;10.80;70.60
52245;DHT22;55759;51.586;-1.758;2024-03-07T12:57:31;10.60;71.10
52245;DHT22;55759;51.586;-1.758;2024-03-07T12:59:57;10.30;72.00
52245;DHT22;55759;51.586;-1.758;2024-03-07T13:02:22;10.10;73.20
52245;DHT22;55759;51.586;-1.758;2024-03-07T13:04:52;10.00;74.10
52245;DHT22;55759;51.586;-1.758;2024-03-07T13:07:18;9.90;74.90
52245;DHT22;55759;51.586;-1.758;2024-03-07T13:09:44;9.80;75.50
52245;DHT22;55759;51.586;-1.758;2024-03-07T13:12:09;9.80;75.90
52245;DHT22;55759;51.586;-1.758;2024-03-07T13:14:35;9.90;75.70
52245;DHT22;55759;51.586;-1.758;2024-03-07T13:17:04;10.10;75.80
52245;DHT22;55759;51.586;-1.758;2024-03-07T13:19:31;10.10;75.60
52245;DHT22;55759;51.586;-1.758;2024-03-07T13:21:57;10.20;75.10
52245;DHT22;55759;51.586;-1.758;2024-03-07T13:24:23;10.10;74.70
52245;DHT22;55759;51.586;-1.758;2024-03-07T13:26:49;10.00;75.20
52245;DHT22;55759;51.586;-1.758;2024-03-07T13:29:15;10.10;75.80
52245;DHT22;55759;51.586;-1.758;2024-03-07T13:31:42;10.10;75.50
52245;DHT22;55759;51.586;-1.758;2024-03-07T13:34:11;10.20;75.30
52245;DHT22;55759;51.586;-1.758;2024-03-07T13:36:40;10.50;74.70
52245;DHT22;55759;51.586;-1.758;2024-03-07T13:39:06;10.90;74.30
52245;DHT22;55759;51.586;-1.758;2024-03-07T13:41:36;11.10;73.00
52245;DHT22;55759;51.586;-1.758;2024-03-07T13:44:02;11.10;72.20
52245;DHT22;55759;51.586;-1.758;2024-03-07T13:46:28;11.10;72.00
52245;DHT22;55759;51.586;-1.758;2024-03-07T13:48:54;11.10;72.10
52245;DHT22;55759;51.586;-1.758;2024-03-07T13:51:25;10.90;72.70
52245;DHT22;55759;51.586;-1.758;2024-03-07T13:53:52;10.90;73.00
52245;DHT22;55759;51.586;-1.758;2024-03-07T13:56:47;10.80;73.20
52245;DHT22;55759;51.586;-1.758;2024-03-07T14:01:51;10.90;73.20
52245;DHT22;55759;51.586;-1.758;2024-03-07T14:09:59;11.20;72.60
52245;DHT22;55759;51.586;-1.758;2024-03-07T14:21:23;11.50;70.90
52245;DHT22;55759;51.586;-1.758;2024-03-07T14:29:26;11.50;70.90
52245;DHT22;55759;51.586;-1.758;2024-03-07T14:31:59;11.50;70.60
52245;DHT22;55759;51.586;-1.758;2024-03-07T14:37:08;11.50;70.30
52245;DHT22;55759;51.586;-1.758;2024-03-07T14:39:37;11.50;70.00
52245;DHT22;55759;51.586;-1.758;2024-03-07T14:42:08;11.70;69.70
52245;DHT22;55759;51.586;-1.758;2024-03-07T14:47:35;11.90;68.70
52245;DHT22;55759;51.586;-1.758;2024-03-07T14:50:13;12.10;67.90
52245;DHT22;55759;51.586;-1.758;2024-03-07T14:52:47;12.20;67.80
52245;DHT22;55759;51.586;-1.758;2024-03-07T14:55:13;12.20;67.90
52245;DHT22;55759;51.586;-1.758;2024-03-07T15:00:28;12.10;68.90
52245;DHT22;55759;51.586;-1.758;2024-03-07T15:02:54;12.00;68.60
52245;DHT22;55759;51.586;-1.758;2024-03-07T15:05:41;11.90;68.50
52245;DHT22;55759;51.586;-1.758;2024-03-07T15:08:06;11.60;68.50
52245;DHT22;55759;51.586;-1.758;2024-03-07T15:10:35;11.40;69.80
52245;DHT22;55759;51.586;-1.758;2024-03-07T15:13:01;11.30;69.40
52245;DHT22;55759;51.586;-1.758;2024-03-07T15:15:34;11.20;68.90
52245;DHT22;55759;51.586;-1.758;2024-03-07T15:18:02;11.00;69.60
52245;DHT22;55759;51.586;-1.758;2024-03-07T15:20:28;10.90;69.90
52245;DHT22;55759;51.586;-1.758;2024-03-07T15:22:56;10.90;69.50
52245;DHT22;55759;51.586;-1.758;2024-03-07T15:25:35;10.90;68.50
52245;DHT22;55759;51.586;-1.758;2024-03-07T15:28:02;10.90;68.20
52245;DHT22;55759;51.586;-1.758;2024-03-07T15:30:34;10.80;68.30
52245;DHT22;55759;51.586;-1.758;2024-03-07T15:33:17;10.80;67.80
52245;DHT22;55759;51.586;-1.758;2024-03-07T15:35:44;10.80;68.20
52245;DHT22;55759;51.586;-1.758;2024-03-07T15:38:09;10.80;68.00
52245;DHT22;55759;51.586;-1.758;2024-03-07T15:40:43;10.80;67.70
52245;DHT22;55759;51.586;-1.758;2024-03-07T15:43:08;10.80;68.50
52245;DHT22;55759;51.586;-1.758;2024-03-07T15:45:34;10.80;68.60
52245;DHT22;55759;51.586;-1.758;2024-03-07T15:48:00;10.80;68.00
52245;DHT22;55759;51.586;-1.758;2024-03-07T15:50:35;10.70;67.90
52245;DHT22;55759;51.586;-1.758;2024-03-07T15:53:01;10.60;68.30
52245;DHT22;55759;51.586;-1.758;2024-03-07T15:55:30;10.60;68.40
52245;DHT22;55759;51.586;-1.758;2024-03-07T15:57:58;10.60;68.00
52245;DHT22;55759;51.586;-1.758;2024-03-07T16:00:26;10.70;67.40
52245;DHT22;55759;51.586;-1.758;2024-03-07T16:02:53;10.70;67.40
52245;DHT22;55759;51.586;-1.758;2024-03-07T16:05:22;10.70;67.60
52245;DHT22;55759;51.586;-1.758;2024-03-07T16:07:51;10.80;68.30
52245;DHT22;55759;51.586;-1.758;2024-03-07T16:10:20;10.80;68.50